sensor_id;sensor_type;location;lat;lon;timestamp;temperature;humidity
44277;DHT22;29973;43.742;1.236;2022-09-27T00:00:24;13.80;99.90
44277;DHT22;29973;43.742;1.236;2022-09-27T00:02:49;13.80;99.90
44277;DHT22;29973;43.742;1.236;2022-09-27T00:05:16;13.90;99.90
44277;DHT22;29973;43.742;1.236;2022-09-27T00:07:43;13.80;99.90
44277;DHT22;29973;43.742;1.236;2022-09-27T00:10:09;13.80;99.90
44277;DHT22;29973;43.742;1.236;2022-09-27T00:12:36;13.90;99.90
44277;DHT22;29973;43.742;1.236;2022-09-27T00:15:02;13.90;99.90
44277;DHT22;29973;43.742;1.236;2022-09-27T00:17:28;14.20;99.90
44277;DHT22;29973;43.742;1.236;2022-09-27T00:19:54;14.20;99.90
44277;DHT22;29973;43.742;1.236;2022-09-27T00:22:23;14.20;99.90
44277;DHT22;29973;43.742;1.236;2022-09-27T00:24:50;14.20;99.90
44277;DHT22;29973;43.742;1.236;2022-09-27T00:27:16;14.30;99.90
44277;DHT22;29973;43.742;1.236;2022-09-27T00:29:42;14.30;99.90
44277;DHT22;29973;43.742;1.236;2022-09-27T00:32:08;14.30;99.90
44277;DHT22;29973;43.742;1.236;2022-09-27T00:34:34;14.40;99.90
44277;DHT22;29973;43.742;1.236;2022-09-27T00:37:00;14.50;99.90
44277;DHT22;29973;43.742;1.236;2022-09-27T00:39:25;14.40;99.90
44277;DHT22;29973;43.742;1.236;2022-09-27T00:41:51;14.50;99.90
44277;DHT22;29973;43.742;1.236;2022-09-27T00:47:24;14.60;99.90
44277;DHT22;29973;43.742;1.236;2022-09-27T00:52:50;14.70;99.90
44277;DHT22;29973;43.742;1.236;2022-09-27T00:55:24;14.80;99.90
44277;DHT22;29973;43.742;1.236;2022-09-27T00:57:52;14.90;99.90
44277;DHT22;29973;43.742;1.236;2022-09-27T01:00:18;14.90;99.90
44277;DHT22;29973;43.742;1.236;2022-09-27T01:02:49;15.00;99.90
44277;DHT22;29973;43.742;1.236;2022-09-27T01:05:17;15.00;99.90
44277;DHT22;29973;43.742;1.236;2022-09-27T01:07:44;15.10;99.90
44277;DHT22;29973;43.742;1.236;2022-09-27T01:10:11;15.10;99.90
44277;DHT22;29973;43.742;1.236;2022-09-27T01:13:17;15.10;99.90
44277;DHT22;29973;43.742;1.236;2022-09-27T01:18:34;15.20;99.90
44277;DHT22;29973;43.742;1.236;2022-09-27T01:32:22;15.20;99.90
44277;DHT22;29973;43.742;1.236;2022-09-27T01:42:36;15.20;99.90
44277;DHT22;29973;43.742;1.236;2022-09-27T01:45:18;15.20;99.90
44277;DHT22;29973;43.742;1.236;2022-09-27T01:47:55;15.20;99.90
44277;DHT22;29973;43.742;1.236;2022-09-27T01:53:08;15.20;99.90
44277;DHT22;29973;43.742;1.236;2022-09-27T01:55:37;15.10;99.90
44277;DHT22;29973;43.742;1.236;2022-09-27T01:58:23;15.00;99.90
44277;DHT22;29973;43.742;1.236;2022-09-27T02:00:52;15.00;99.90
44277;DHT22;29973;43.742;1.236;2022-09-27T02:03:32;14.90;99.90
44277;DHT22;29973;43.742;1.236;2022-09-27T02:06:02;14.80;99.90
44277;DHT22;29973;43.742;1.236;2022-09-27T02:08:44;14.70;99.90
44277;DHT22;29973;43.742;1.236;2022-09-27T02:11:12;14.70;99.90
44277;DHT22;29973;43.742;1.236;2022-09-27T02:13:53;14.70;99.90
44277;DHT22;29973;43.742;1.236;2022-09-27T02:22:20;14.70;99.90
44277;DHT22;29973;43.742;1.236;2022-09-27T02:24:58;14.80;99.90
44277;DHT22;29973;43.742;1.236;2022-09-27T02:27:42;14.80;99.90
44277;DHT22;29973;43.742;1.236;2022-09-27T02:30:14;14.80;99.90
44277;DHT22;29973;43.742;1.236;2022-09-27T02:32:41;14.70;99.90
44277;DHT22;29973;43.742;1.236;2022-09-27T02:35:32;14.70;99.90
44277;DHT22;29973;43.742;1.236;2022-09-27T02:37:58;14.60;99.90
44277;DHT22;29973;43.742;1.236;2022-09-27T02:40:29;14.60;99.90
44277;DHT22;29973;43.742;1.236;2022-09-27T02:42:55;14.60;99.90
44277;DHT22;29973;43.742;1.236;2022-09-27T02:45:22;14.60;99.90
44277;DHT22;29973;43.742;1.236;2022-09-27T03:05:02;14.70;99.90
44277;DHT22;29973;43.742;1.236;2022-09-27T03:07:30;14.70;99.90
44277;DHT22;29973;43.742;1.236;2022-09-27T03:09:56;14.70;99.90
44277;DHT22;29973;43.742;1.236;2022-09-27T03:12:22;14.70;99.90
44277;DHT22;29973;43.742;1.236;2022-09-27T03:14:57;14.70;99.90
44277;DHT22;29973;43.742;1.236;2022-09-27T03:17:24;14.80;99.90
44277;DHT22;29973;43.742;1.236;2022-09-27T03:19:51;14.70;99.90
44277;DHT22;29973;43.742;1.236;2022-09-27T03:22:17;14.70;99.90
44277;DHT22;29973;43.742;1.236;2022-09-27T03:24:43;14.70;99.90
44277;DHT22;29973;43.742;1.236;2022-09-27T03:27:08;14.70;99.90
44277;DHT22;29973;43.742;1.236;2022-09-27T03:29:35;14.70;99.90
44277;DHT22;29973;43.742;1.236;2022-09-27T03:32:02;14.70;99.90
44277;DHT22;29973;43.742;1.236;2022-09-27T03:34:27;14.70;99.90
44277;DHT22;29973;43.742;1.236;2022-09-27T03:36:54;14.70;99.90
44277;DHT22;29973;43.742;1.236;2022-09-27T03:39:20;14.70;99.90
44277;DHT22;29973;43.742;1.236;2022-09-27T03:41:45;14.70;99.90
44277;DHT22;29973;43.742;1.236;2022-09-27T03:44:11;14.70;99.90
44277;DHT22;29973;43.742;1.236;2022-09-27T03:46:37;14.60;99.90
44277;DHT22;29973;43.742;1.236;2022-09-27T03:49:03;14.60;99.90
44277;DHT22;29973;43.742;1.236;2022-09-27T03:51:28;14.60;99.90
44277;DHT22;29973;43.742;1.236;2022-09-27T03:53:54;14.50;99.90
44277;DHT22;29973;43.742;1.236;2022-09-27T03:56:20;14.50;99.90
44277;DHT22;29973;43.742;1.236;2022-09-27T03:58:45;14.40;99.90
44277;DHT22;29973;43.742;1.236;2022-09-27T04:01:12;14.40;99.90
44277;DHT22;29973;43.742;1.236;2022-09-27T04:03:38;14.40;99.90
44277;DHT22;29973;43.742;1.236;2022-09-27T04:06:04;14.40;99.90
44277;DHT22;29973;43.742;1.236;2022-09-27T04:08:29;14.40;99.90
44277;DHT22;29973;43.742;1.236;2022-09-27T04:10:55;14.40;99.90
44277;DHT22;29973;43.742;1.236;2022-09-27T04:13:21;14.40;99.90
44277;DHT22;29973;43.742;1.236;2022-09-27T04:15:47;14.40;99.90
44277;DHT22;29973;43.742;1.236;2022-09-27T04:18:13;14.40;99.90
44277;DHT22;29973;43.742;1.236;2022-09-27T04:20:39;14.40;99.90
44277;DHT22;29973;43.742;1.236;2022-09-27T04:23:05;14.40;99.90
44277;DHT22;29973;43.742;1.236;2022-09-27T04:25:30;14.40;99.90
44277;DHT22;29973;43.742;1.236;2022-09-27T04:27:59;14.30;99.90
44277;DHT22;29973;43.742;1.236;2022-09-27T04:30:29;14.40;99.90
44277;DHT22;29973;43.742;1.236;2022-09-27T04:32:55;14.30;99.90
44277;DHT22;29973;43.742;1.236;2022-09-27T04:35:20;14.30;99.90
44277;DHT22;29973;43.742;1.236;2022-09-27T04:38:05;14.20;99.90
44277;DHT22;29973;43.742;1.236;2022-09-27T04:40:33;14.20;99.90
44277;DHT22;29973;43.742;1.236;2022-09-27T04:43:00;14.10;99.90
44277;DHT22;29973;43.742;1.236;2022-09-27T04:45:26;14.20;99.90
44277;DHT22;29973;43.742;1.236;2022-09-27T04:47:51;14.20;99.90
44277;DHT22;29973;43.742;1.236;2022-09-27T04:50:18;14.10;99.90
44277;DHT22;29973;43.742;1.236;2022-09-27T04:52:52;14.10;99.90
44277;DHT22;29973;43.742;1.236;2022-09-27T04:55:19;14.10;99.90
44277;DHT22;29973;43.742;1.236;2022-09-27T04:57:45;14.10;99.90
44277;DHT22;29973;43.742;1.236;2022-09-27T05:00:11;14.00;99.90
44277;DHT22;29973;43.742;1.236;2022-09-27T05:02:38;14.00;99.90
44277;DHT22;29973;43.742;1.236;2022-09-27T05:05:04;14.00;99.90
44277;DHT22;29973;43.742;1.236;2022-09-27T05:07:33;14.00;99.90
44277;DHT22;29973;43.742;1.236;2022-09-27T05:09:59;13.90;99.90
44277;DHT22;29973;43.742;1.236;2022-09-27T05:12:25;13.90;99.90
44277;DHT22;29973;43.742;1.236;2022-09-27T05:14:52;13.80;99.90
44277;DHT22;29973;43.742;1.236;2022-09-27T05:17:18;13.90;99.90
44277;DHT22;29973;43.742;1.236;2022-09-27T05:19:46;13.80;99.90
44277;DHT22;29973;43.742;1.236;2022-09-27T05:22:11;13.70;99.90
44277;DHT22;29973;43.742;1.236;2022-09-27T05:24:37;13.80;99.90
44277;DHT22;29973;43.742;1.236;2022-09-27T05:27:04;13.70;99.90
44277;DHT22;29973;43.742;1.236;2022-09-27T05:29:33;13.70;99.90
44277;DHT22;29973;43.742;1.236;2022-09-27T05:32:02;13.70;99.90
44277;DHT22;29973;43.742;1.236;2022-09-27T05:34:28;13.60;99.90
44277;DHT22;29973;43.742;1.236;2022-09-27T05:36:55;13.50;99.90
44277;DHT22;29973;43.742;1.236;2022-09-27T05:39:21;13.40;99.90
44277;DHT22;29973;43.742;1.236;2022-09-27T05:41:47;13.40;99.90
44277;DHT22;29973;43.742;1.236;2022-09-27T05:44:15;13.40;99.90
44277;DHT22;29973;43.742;1.236;2022-09-27T05:46:41;13.40;99.90
44277;DHT22;29973;43.742;1.236;2022-09-27T05:49:07;13.30;99.90
44277;DHT22;29973;43.742;1.236;2022-09-27T05:51:33;13.30;99.90
44277;DHT22;29973;43.742;1.236;2022-09-27T05:53:58;13.30;99.90
44277;DHT22;29973;43.742;1.236;2022-09-27T05:56:24;13.30;99.90
44277;DHT22;29973;43.742;1.236;2022-09-27T05:58:50;13.20;99.90
44277;DHT22;29973;43.742;1.236;2022-09-27T06:01:16;13.30;99.90
44277;DHT22;29973;43.742;1.236;2022-09-27T06:03:42;13.10;99.90
44277;DHT22;29973;43.742;1.236;2022-09-27T06:06:10;13.20;99.90
44277;DHT22;29973;43.742;1.236;2022-09-27T06:08:38;13.10;99.90
44277;DHT22;29973;43.742;1.236;2022-09-27T06:11:07;13.10;99.90
44277;DHT22;29973;43.742;1.236;2022-09-27T06:13:33;13.10;99.90
44277;DHT22;29973;43.742;1.236;2022-09-27T06:16:01;13.10;99.90
44277;DHT22;29973;43.742;1.236;2022-09-27T06:18:27;13.20;99.90
44277;DHT22;29973;43.742;1.236;2022-09-27T06:20:52;13.20;99.90
44277;DHT22;29973;43.742;1.236;2022-09-27T06:23:21;13.20;99.90
44277;DHT22;29973;43.742;1.236;2022-09-27T06:25:47;13.20;99.90
44277;DHT22;29973;43.742;1.236;2022-09-27T06:28:13;13.20;99.90
44277;DHT22;29973;43.742;1.236;2022-09-27T06:30:41;13.10;99.90
44277;DHT22;29973;43.742;1.236;2022-09-27T06:33:12;13.10;99.90
44277;DHT22;29973;43.742;1.236;2022-09-27T06:35:39;13.00;99.90
44277;DHT22;29973;43.742;1.236;2022-09-27T06:38:06;13.10;99.90
44277;DHT22;29973;43.742;1.236;2022-09-27T06:40:34;13.10;99.90
44277;DHT22;29973;43.742;1.236;2022-09-27T06:43:07;13.10;99.90
44277;DHT22;29973;43.742;1.236;2022-09-27T06:45:35;13.20;99.90
44277;DHT22;29973;43.742;1.236;2022-09-27T06:48:02;13.20;99.90
44277;DHT22;29973;43.742;1.236;2022-09-27T06:50:29;13.20;99.90
44277;DHT22;29973;43.742;1.236;2022-09-27T06:52:55;13.30;99.90
44277;DHT22;29973;43.742;1.236;2022-09-27T06:55:21;13.30;99.90
44277;DHT22;29973;43.742;1.236;2022-09-27T06:57:47;13.40;99.90
44277;DHT22;29973;43.742;1.236;2022-09-27T07:00:31;13.40;99.90
44277;DHT22;29973;43.742;1.236;2022-09-27T07:02:57;13.50;99.90
44277;DHT22;29973;43.742;1.236;2022-09-27T07:05:27;13.50;99.90
44277;DHT22;29973;43.742;1.236;2022-09-27T07:07:54;13.50;99.90
44277;DHT22;29973;43.742;1.236;2022-09-27T07:10:23;13.60;99.90
44277;DHT22;29973;43.742;1.236;2022-09-27T07:12:48;13.70;99.90
44277;DHT22;29973;43.742;1.236;2022-09-27T07:15:14;13.90;99.90
44277;DHT22;29973;43.742;1.236;2022-09-27T07:17:40;14.00;99.90
44277;DHT22;29973;43.742;1.236;2022-09-27T07:20:07;14.10;99.90
44277;DHT22;29973;43.742;1.236;2022-09-27T07:22:39;14.00;99.90
44277;DHT22;29973;43.742;1.236;2022-09-27T07:25:06;13.90;99.90
44277;DHT22;29973;43.742;1.236;2022-09-27T07:27:32;14.10;99.90
44277;DHT22;29973;43.742;1.236;2022-09-27T07:30:00;14.20;99.90
44277;DHT22;29973;43.742;1.236;2022-09-27T07:32:26;14.50;99.90
44277;DHT22;29973;43.742;1.236;2022-09-27T07:34:51;14.70;99.90
44277;DHT22;29973;43.742;1.236;2022-09-27T07:37:17;14.90;99.90
44277;DHT22;29973;43.742;1.236;2022-09-27T07:39:43;15.30;99.90
44277;DHT22;29973;43.742;1.236;2022-09-27T07:42:09;15.20;99.90
44277;DHT22;29973;43.742;1.236;2022-09-27T07:44:34;15.30;99.90
44277;DHT22;29973;43.742;1.236;2022-09-27T07:47:00;15.30;99.90
44277;DHT22;29973;43.742;1.236;2022-09-27T07:49:26;15.30;99.90
44277;DHT22;29973;43.742;1.236;2022-09-27T07:51:52;15.40;99.90
44277;DHT22;29973;43.742;1.236;2022-09-27T07:54:17;15.70;99.90
44277;DHT22;29973;43.742;1.236;2022-09-27T07:56:46;16.00;99.90
44277;DHT22;29973;43.742;1.236;2022-09-27T07:59:12;15.50;99.90
44277;DHT22;29973;43.742;1.236;2022-09-27T08:01:37;15.80;99.90
44277;DHT22;29973;43.742;1.236;2022-09-27T08:04:04;15.90;99.90
44277;DHT22;29973;43.742;1.236;2022-09-27T08:06:30;15.80;99.90
44277;DHT22;29973;43.742;1.236;2022-09-27T08:08:55;16.00;99.90
44277;DHT22;29973;43.742;1.236;2022-09-27T08:11:23;16.20;99.90
44277;DHT22;29973;43.742;1.236;2022-09-27T08:13:48;16.70;99.90
44277;DHT22;29973;43.742;1.236;2022-09-27T08:16:16;15.90;99.90
44277;DHT22;29973;43.742;1.236;2022-09-27T08:18:42;15.40;99.90
44277;DHT22;29973;43.742;1.236;2022-09-27T08:21:08;15.10;99.90
44277;DHT22;29973;43.742;1.236;2022-09-27T08:23:34;15.00;99.90
44277;DHT22;29973;43.742;1.236;2022-09-27T08:26:01;15.00;99.90
44277;DHT22;29973;43.742;1.236;2022-09-27T08:28:27;14.90;99.90
44277;DHT22;29973;43.742;1.236;2022-09-27T08:30:53;15.00;99.90
44277;DHT22;29973;43.742;1.236;2022-09-27T08:33:19;15.10;99.90
44277;DHT22;29973;43.742;1.236;2022-09-27T08:35:45;15.20;99.90
44277;DHT22;29973;43.742;1.236;2022-09-27T08:38:10;15.30;99.90
44277;DHT22;29973;43.742;1.236;2022-09-27T08:43:26;15.60;99.90
44277;DHT22;29973;43.742;1.236;2022-09-27T08:46:19;15.80;99.90
44277;DHT22;29973;43.742;1.236;2022-09-27T08:48:55;15.90;99.90
44277;DHT22;29973;43.742;1.236;2022-09-27T08:51:27;15.80;99.90
44277;DHT22;29973;43.742;1.236;2022-09-27T08:53:59;16.00;99.90
44277;DHT22;29973;43.742;1.236;2022-09-27T08:56:25;16.20;99.90
44277;DHT22;29973;43.742;1.236;2022-09-27T08:59:18;16.50;99.90
44277;DHT22;29973;43.742;1.236;2022-09-27T09:01:47;16.80;99.90
44277;DHT22;29973;43.742;1.236;2022-09-27T09:18:08;17.00;99.90
44277;DHT22;29973;43.742;1.236;2022-09-27T09:21:01;17.20;99.90
44277;DHT22;29973;43.742;1.236;2022-09-27T09:26:31;17.40;99.90
44277;DHT22;29973;43.742;1.236;2022-09-27T09:29:15;17.10;99.90
44277;DHT22;29973;43.742;1.236;2022-09-27T09:31:56;17.90;99.90
44277;DHT22;29973;43.742;1.236;2022-09-27T09:34:40;17.50;99.90
44277;DHT22;29973;43.742;1.236;2022-09-27T09:37:34;17.30;99.90
44277;DHT22;29973;43.742;1.236;2022-09-27T09:40:25;18.30;99.90
44277;DHT22;29973;43.742;1.236;2022-09-27T09:43:08;17.60;99.90
44277;DHT22;29973;43.742;1.236;2022-09-27T09:45:41;17.60;99.90
44277;DHT22;29973;43.742;1.236;2022-09-27T09:48:29;17.70;99.90
44277;DHT22;29973;43.742;1.236;2022-09-27T09:50:58;18.00;99.90
44277;DHT22;29973;43.742;1.236;2022-09-27T09:56:30;18.10;99.90
44277;DHT22;29973;43.742;1.236;2022-09-27T09:59:02;17.80;99.90
44277;DHT22;29973;43.742;1.236;2022-09-27T10:01:44;17.90;99.90
44277;DHT22;29973;43.742;1.236;2022-09-27T10:04:20;18.20;99.90
44277;DHT22;29973;43.742;1.236;2022-09-27T10:06:48;18.00;99.90
44277;DHT22;29973;43.742;1.236;2022-09-27T10:09:15;17.50;99.90
44277;DHT22;29973;43.742;1.236;2022-09-27T10:11:44;17.40;99.90
44277;DHT22;29973;43.742;1.236;2022-09-27T10:14:15;17.10;99.90
44277;DHT22;29973;43.742;1.236;2022-09-27T10:16:47;17.10;99.90
44277;DHT22;29973;43.742;1.236;2022-09-27T10:19:28;17.30;99.90
44277;DHT22;29973;43.742;1.236;2022-09-27T10:22:08;17.60;99.90
44277;DHT22;29973;43.742;1.236;2022-09-27T10:24:58;18.00;99.90
44277;DHT22;29973;43.742;1.236;2022-09-27T10:27:26;17.70;99.90
44277;DHT22;29973;43.742;1.236;2022-09-27T10:29:59;18.00;99.90
44277;DHT22;29973;43.742;1.236;2022-09-27T10:32:29;18.30;99.90
44277;DHT22;29973;43.742;1.236;2022-09-27T10:35:40;18.80;99.90
44277;DHT22;29973;43.742;1.236;2022-09-27T10:40:44;19.30;99.90
44277;DHT22;29973;43.742;1.236;2022-09-27T10:43:30;18.70;99.90
44277;DHT22;29973;43.742;1.236;2022-09-27T10:46:09;19.10;99.90
44277;DHT22;29973;43.742;1.236;2022-09-27T10:48:36;18.60;99.90
44277;DHT22;29973;43.742;1.236;2022-09-27T10:51:05;18.40;99.90
44277;DHT22;29973;43.742;1.236;2022-09-27T10:53:34;17.60;99.90
44277;DHT22;29973;43.742;1.236;2022-09-27T10:56:00;17.90;99.90
44277;DHT22;29973;43.742;1.236;2022-09-27T11:03:28;19.70;99.90
44277;DHT22;29973;43.742;1.236;2022-09-27T11:05:55;19.20;99.90
44277;DHT22;29973;43.742;1.236;2022-09-27T11:08:32;18.90;99.90
44277;DHT22;29973;43.742;1.236;2022-09-27T11:13:39;18.20;99.90
44277;DHT22;29973;43.742;1.236;2022-09-27T11:16:15;17.70;99.90
44277;DHT22;29973;43.742;1.236;2022-09-27T11:27:08;18.20;99.90
44277;DHT22;29973;43.742;1.236;2022-09-27T11:32:31;18.60;99.90
44277;DHT22;29973;43.742;1.236;2022-09-27T11:57:24;17.50;99.90
44277;DHT22;29973;43.742;1.236;2022-09-27T12:00:02;17.10;99.90
44277;DHT22;29973;43.742;1.236;2022-09-27T12:08:32;17.00;99.90
44277;DHT22;29973;43.742;1.236;2022-09-27T12:11:14;17.00;99.90
44277;DHT22;29973;43.742;1.236;2022-09-27T12:13:48;17.50;99.90
44277;DHT22;29973;43.742;1.236;2022-09-27T12:16:18;17.30;99.90
44277;DHT22;29973;43.742;1.236;2022-09-27T12:18:46;17.40;99.90
44277;DHT22;29973;43.742;1.236;2022-09-27T12:21:13;17.70;99.90
44277;DHT22;29973;43.742;1.236;2022-09-27T12:26:18;17.60;99.90
44277;DHT22;29973;43.742;1.236;2022-09-27T12:29:09;17.50;99.90
44277;DHT22;29973;43.742;1.236;2022-09-27T12:34:21;16.70;99.90
44277;DHT22;29973;43.742;1.236;2022-09-27T12:37:01;16.50;99.90
44277;DHT22;29973;43.742;1.236;2022-09-27T12:39:40;16.50;99.90
44277;DHT22;29973;43.742;1.236;2022-09-27T12:42:37;15.90;99.90
44277;DHT22;29973;43.742;1.236;2022-09-27T12:45:09;16.10;99.90
44277;DHT22;29973;43.742;1.236;2022-09-27T12:50:21;17.80;99.90
44277;DHT22;29973;43.742;1.236;2022-09-27T12:52:56;18.10;99.90
44277;DHT22;29973;43.742;1.236;2022-09-27T13:00:45;19.20;99.90
44277;DHT22;29973;43.742;1.236;2022-09-27T13:06:08;20.00;99.90
44277;DHT22;29973;43.742;1.236;2022-09-27T13:14:02;21.80;99.90
44277;DHT22;29973;43.742;1.236;2022-09-27T13:16:29;23.40;99.90
44277;DHT22;29973;43.742;1.236;2022-09-27T13:18:58;22.70;99.90
44277;DHT22;29973;43.742;1.236;2022-09-27T13:35:35;21.20;99.90
44277;DHT22;29973;43.742;1.236;2022-09-27T13:38:02;20.50;99.90
44277;DHT22;29973;43.742;1.236;2022-09-27T13:51:18;19.90;99.90
44277;DHT22;29973;43.742;1.236;2022-09-27T13:53:58;19.50;99.90
44277;DHT22;29973;43.742;1.236;2022-09-27T14:04:42;18.20;99.90
44277;DHT22;29973;43.742;1.236;2022-09-27T14:07:14;18.10;99.90
44277;DHT22;29973;43.742;1.236;2022-09-27T14:09:44;17.90;99.90
44277;DHT22;29973;43.742;1.236;2022-09-27T14:12:23;17.50;99.90
44277;DHT22;29973;43.742;1.236;2022-09-27T14:14:53;17.80;99.90
44277;DHT22;29973;43.742;1.236;2022-09-27T14:17:20;17.50;99.90
44277;DHT22;29973;43.742;1.236;2022-09-27T14:19:47;17.70;99.90
44277;DHT22;29973;43.742;1.236;2022-09-27T14:22:15;17.60;99.90
44277;DHT22;29973;43.742;1.236;2022-09-27T14:29:49;17.00;99.90
44277;DHT22;29973;43.742;1.236;2022-09-27T14:32:20;16.60;99.90
44277;DHT22;29973;43.742;1.236;2022-09-27T14:35:22;16.60;99.90
44277;DHT22;29973;43.742;1.236;2022-09-27T14:38:18;15.90;99.90
44277;DHT22;29973;43.742;1.236;2022-09-27T14:41:00;17.70;99.90
44277;DHT22;29973;43.742;1.236;2022-09-27T14:43:26;18.60;99.90
44277;DHT22;29973;43.742;1.236;2022-09-27T14:46:01;19.70;99.90
44277;DHT22;29973;43.742;1.236;2022-09-27T14:48:29;19.80;99.90
44277;DHT22;29973;43.742;1.236;2022-09-27T14:51:00;18.40;99.90
44277;DHT22;29973;43.742;1.236;2022-09-27T14:53:41;18.90;99.90
44277;DHT22;29973;43.742;1.236;2022-09-27T14:56:14;19.40;99.90
44277;DHT22;29973;43.742;1.236;2022-09-27T14:58:43;18.60;99.90
44277;DHT22;29973;43.742;1.236;2022-09-27T15:01:15;18.20;99.90
44277;DHT22;29973;43.742;1.236;2022-09-27T15:03:41;18.60;99.90
44277;DHT22;29973;43.742;1.236;2022-09-27T15:06:08;19.00;99.90
44277;DHT22;29973;43.742;1.236;2022-09-27T15:08:34;21.90;99.90
44277;DHT22;29973;43.742;1.236;2022-09-27T15:11:03;20.70;99.90
44277;DHT22;29973;43.742;1.236;2022-09-27T15:13:31;20.70;99.90
44277;DHT22;29973;43.742;1.236;2022-09-27T15:15:57;21.70;99.90
44277;DHT22;29973;43.742;1.236;2022-09-27T15:18:42;20.70;99.90
44277;DHT22;29973;43.742;1.236;2022-09-27T15:21:14;18.80;99.90
44277;DHT22;29973;43.742;1.236;2022-09-27T15:23:42;17.60;99.90
44277;DHT22;29973;43.742;1.236;2022-09-27T15:26:25;17.60;99.90
44277;DHT22;29973;43.742;1.236;2022-09-27T15:28:52;17.20;99.90
44277;DHT22;29973;43.742;1.236;2022-09-27T15:31:28;17.00;99.90
44277;DHT22;29973;43.742;1.236;2022-09-27T15:33:55;16.80;99.90
44277;DHT22;29973;43.742;1.236;2022-09-27T15:39:25;16.50;99.90
44277;DHT22;29973;43.742;1.236;2022-09-27T15:42:01;16.00;99.90
44277;DHT22;29973;43.742;1.236;2022-09-27T15:44:56;15.80;99.90
44277;DHT22;29973;43.742;1.236;2022-09-27T15:52:43;16.10;99.90
44277;DHT22;29973;43.742;1.236;2022-09-27T15:55:17;16.20;99.90
44277;DHT22;29973;43.742;1.236;2022-09-27T15:57:46;16.10;99.90
44277;DHT22;29973;43.742;1.236;2022-09-27T16:00:14;16.10;99.90
44277;DHT22;29973;43.742;1.236;2022-09-27T16:02:44;16.00;99.90
44277;DHT22;29973;43.742;1.236;2022-09-27T16:05:10;16.00;99.90
44277;DHT22;29973;43.742;1.236;2022-09-27T16:07:36;16.10;99.90
44277;DHT22;29973;43.742;1.236;2022-09-27T16:10:12;16.20;99.90
44277;DHT22;29973;43.742;1.236;2022-09-27T16:12:39;15.60;99.90
44277;DHT22;29973;43.742;1.236;2022-09-27T16:15:05;15.00;99.90
44277;DHT22;29973;43.742;1.236;2022-09-27T16:17:31;15.00;99.90
44277;DHT22;29973;43.742;1.236;2022-09-27T16:19:57;15.00;99.90
44277;DHT22;29973;43.742;1.236;2022-09-27T16:22:22;15.10;99.90
44277;DHT22;29973;43.742;1.236;2022-09-27T16:24:48;15.40;99.90
44277;DHT22;29973;43.742;1.236;2022-09-27T16:27:26;15.50;99.90
44277;DHT22;29973;43.742;1.236;2022-09-27T16:29:53;15.70;99.90
44277;DHT22;29973;43.742;1.236;2022-09-27T16:32:19;15.80;99.90
44277;DHT22;29973;43.742;1.236;2022-09-27T16:34:45;16.00;99.90
44277;DHT22;29973;43.742;1.236;2022-09-27T16:37:10;16.10;99.90
44277;DHT22;29973;43.742;1.236;2022-09-27T16:39:36;16.00;99.90
44277;DHT22;29973;43.742;1.236;2022-09-27T16:42:03;15.90;99.90
44277;DHT22;29973;43.742;1.236;2022-09-27T16:44:31;15.90;99.90
44277;DHT22;29973;43.742;1.236;2022-09-27T16:46:59;15.80;99.90
44277;DHT22;29973;43.742;1.236;2022-09-27T16:49:25;15.80;99.90
44277;DHT22;29973;43.742;1.236;2022-09-27T16:52:10;15.80;99.90
44277;DHT22;29973;43.742;1.236;2022-09-27T16:54:35;15.80;99.90
44277;DHT22;29973;43.742;1.236;2022-09-27T16:57:01;15.70;99.90
44277;DHT22;29973;43.742;1.236;2022-09-27T16:59:27;15.70;99.90
44277;DHT22;29973;43.742;1.236;2022-09-27T17:01:53;15.90;99.90
44277;DHT22;29973;43.742;1.236;2022-09-27T17:04:23;15.90;99.90
44277;DHT22;29973;43.742;1.236;2022-09-27T17:06:50;15.80;99.90
44277;DHT22;29973;43.742;1.236;2022-09-27T17:09:15;15.70;99.90
44277;DHT22;29973;43.742;1.236;2022-09-27T17:11:41;15.50;99.90
44277;DHT22;29973;43.742;1.236;2022-09-27T17:14:12;15.30;99.90
44277;DHT22;29973;43.742;1.236;2022-09-27T17:16:45;15.20;99.90
44277;DHT22;29973;43.742;1.236;2022-09-27T17:19:12;15.10;99.90
44277;DHT22;29973;43.742;1.236;2022-09-27T17:21:38;15.00;99.90
44277;DHT22;29973;43.742;1.236;2022-09-27T17:24:05;15.00;99.90
44277;DHT22;29973;43.742;1.236;2022-09-27T17:26:31;14.90;99.90
44277;DHT22;29973;43.742;1.236;2022-09-27T17:28:58;14.80;99.90
44277;DHT22;29973;43.742;1.236;2022-09-27T17:31:29;14.70;99.90
44277;DHT22;29973;43.742;1.236;2022-09-27T17:34:01;14.60;99.90
44277;DHT22;29973;43.742;1.236;2022-09-27T17:36:29;14.60;99.90
44277;DHT22;29973;43.742;1.236;2022-09-27T17:38:57;14.50;99.90
44277;DHT22;29973;43.742;1.236;2022-09-27T17:41:25;14.50;99.90
44277;DHT22;29973;43.742;1.236;2022-09-27T17:43:59;14.40;99.90
44277;DHT22;29973;43.742;1.236;2022-09-27T17:46:28;14.30;99.90
44277;DHT22;29973;43.742;1.236;2022-09-27T17:48:54;14.40;99.90
44277;DHT22;29973;43.742;1.236;2022-09-27T17:51:42;14.30;99.90
44277;DHT22;29973;43.742;1.236;2022-09-27T17:54:09;14.30;99.90
44277;DHT22;29973;43.742;1.236;2022-09-27T17:56:38;14.30;99.90
44277;DHT22;29973;43.742;1.236;2022-09-27T17:59:05;14.30;99.90
44277;DHT22;29973;43.742;1.236;2022-09-27T18:01:31;14.30;99.90
44277;DHT22;29973;43.742;1.236;2022-09-27T18:03:59;14.40;99.90
44277;DHT22;29973;43.742;1.236;2022-09-27T18:06:26;14.50;99.90
44277;DHT22;29973;43.742;1.236;2022-09-27T18:08:53;14.60;99.90
44277;DHT22;29973;43.742;1.236;2022-09-27T18:11:21;14.60;99.90
44277;DHT22;29973;43.742;1.236;2022-09-27T18:13:52;14.60;99.90
44277;DHT22;29973;43.742;1.236;2022-09-27T18:16:19;14.50;99.90
44277;DHT22;29973;43.742;1.236;2022-09-27T18:18:46;14.50;99.90
44277;DHT22;29973;43.742;1.236;2022-09-27T18:21:18;14.30;99.90
44277;DHT22;29973;43.742;1.236;2022-09-27T18:23:49;14.30;99.90
44277;DHT22;29973;43.742;1.236;2022-09-27T18:26:19;14.20;99.90
44277;DHT22;29973;43.742;1.236;2022-09-27T18:28:46;14.30;99.90
44277;DHT22;29973;43.742;1.236;2022-09-27T18:31:17;14.20;99.90
44277;DHT22;29973;43.742;1.236;2022-09-27T18:33:43;14.20;99.90
44277;DHT22;29973;43.742;1.236;2022-09-27T18:36:14;14.10;99.90
44277;DHT22;29973;43.742;1.236;2022-09-27T18:38:40;14.10;99.90
44277;DHT22;29973;43.742;1.236;2022-09-27T18:41:11;14.30;99.90
44277;DHT22;29973;43.742;1.236;2022-09-27T18:43:37;14.20;99.90
44277;DHT22;29973;43.742;1.236;2022-09-27T18:46:08;14.30;99.90
44277;DHT22;29973;43.742;1.236;2022-09-27T18:48:35;14.40;99.90
44277;DHT22;29973;43.742;1.236;2022-09-27T18:51:21;14.50;99.90
44277;DHT22;29973;43.742;1.236;2022-09-27T18:54:00;14.60;99.90
44277;DHT22;29973;43.742;1.236;2022-09-27T18:56:27;14.60;99.90
44277;DHT22;29973;43.742;1.236;2022-09-27T18:58:53;14.60;99.90
44277;DHT22;29973;43.742;1.236;2022-09-27T19:01:20;14.60;99.90